KCPU

Details ICAO KCPU
Name Calaveras Co Maury Rasmussen Fld
Region United States
Timezone America/Los_Angeles (UTC-8.0)
Plans Departing 1
Arriving 3
Stats Elevation 1,325 ft / 404 m (AMSL)
Location 38.146116° -120.648173°
Runways 1
Magnetic Variation 13.290° E
Sunrise 2017-12-12 15:11:23 UTC / 2017-12-12 07:11:23 Local
Sunset 2017-12-13 00:44:26 UTC / 2017-12-12 16:44:26 Local
Advertisement - Login to hide

Runways

ID Width Length Bearing (true) Bearing (mag) Surface Threshold Offset Overrun Length
13 60 ft / 18 m 3,605 ft / 1,099 m 145.99° 132.70° Asphalt 0 ft / 0 m 0 ft / 0 m
31 60 ft / 18 m 3,605 ft / 1,099 m 326.00° 312.71° Asphalt 0 ft / 0 m 0 ft / 0 m

Map

Weather


0- 5 10 15 20 25 30 35+ Temperature / ° C

Clouds and Precipitation
Forecast for 2017-12-13 00:00 UTC. Updated an hour ago

Ground ~20,000 ft ~40,000 ft Winds

METAR

KCPU 122215Z AUTO 33006KT 10SM CLR 15/02 A3022 RMK AO2 T01530022

TAF

Not found

Frequencies

Recorded 118.52 MHz AWOS 3
Unicom 122.80 MHz CTAF/UNICOM
Warning: Do not use this data for real-world aviation or navigation. No guarantee of current accuracy is given.